Time;durP1;ratioP1;P1;durP2;ratioP2;P2;SDS_P1;SDS_P2;PMS_P1;PMS_P2;Temp;Humidity;BMP_temperature;BMP_pressure;BME280_temperature;BME280_humidity;BME280_pressure;Samples;Min_cycle;Max_cycle;Signal;HPM_P1;HPM_P2
2022/10/25 00:01:33;;;;;;;;;;;;;;;13.89;75.94;100931.25;5056963;28;19913;-55
2022/10/25 00:03:58;;;;;;;;;;;;;;;13.87;75.94;100938.44;5057399;28;20059;-58
2022/10/25 00:06:23;;;;;;;;;;;;;;;13.84;75.86;100936.88;5055989;28;19940;-57
2022/10/25 00:08:49;;;;;;;;;;;;;;;13.84;76.10;100938.69;5058600;28;20378;-58
2022/10/25 00:11:24;;;;;;;;;;;;;;;13.82;75.99;100935.28;5058159;28;19920;-57
2022/10/25 00:13:51;;;;;;;;;;;;;;;13.81;75.96;100939.72;5058878;28;19920;-57
2022/10/25 00:16:18;;;;;;;;;;;;;;;13.79;76.25;100946.06;5058220;28;19917;-55
2022/10/25 00:18:43;;;;;;;;;;;;;;;13.78;76.13;100944.38;5058381;28;20022;-55
2022/10/25 00:21:08;;;;;;;;;;;;;;;13.77;76.11;100950.63;5058850;28;19927;-58
2022/10/25 00:23:34;;;;;;;;;;;;;;;13.77;76.10;100938.22;5060244;28;19928;-55
2022/10/25 00:26:00;;;;;;;;;;;;;;;13.77;76.17;100940.03;5060686;28;19928;-57
2022/10/25 00:28:25;;;;;;;;;;;;;;;13.75;76.17;100937.50;5058268;28;19932;-56
2022/10/25 00:30:58;;;;;;;;;;;;;;;13.76;76.26;100941.00;5057692;28;19929;-57
2022/10/25 00:33:23;;;;;;;;;;;;;;;13.75;76.40;100956.03;5058522;28;19925;-56
2022/10/25 00:35:48;;;;;;;;;;;;;;;13.75;76.20;100941.94;5058106;28;19921;-57
2022/10/25 00:38:13;;;;;;;;;;;;;;;13.73;76.23;100947.34;5060181;28;21141;-56
2022/10/25 00:40:39;;;;;;;;;;;;;;;13.72;76.32;100954.41;5059599;28;19927;-56
2022/10/25 00:43:04;;;;;;;;;;;;;;;13.71;76.26;100952.72;5057567;28;20005;-56
2022/10/25 00:45:29;;;;;;;;;;;;;;;13.70;76.28;100958.13;5054334;28;19975;-56
2022/10/25 00:48:05;;;;;;;;;;;;;;;13.68;76.37;100955.59;5057086;28;19921;-55
2022/10/25 00:50:33;;;;;;;;;;;;;;;13.66;76.21;100957.50;5059799;28;19920;-55
2022/10/25 00:53:04;;;;;;;;;;;;;;;13.65;76.34;100960.22;5058679;28;20332;-56
2022/10/25 00:55:29;;;;;;;;;;;;;;;13.62;76.42;100961.28;5055765;28;19920;-55
2022/10/25 00:58:03;;;;;;;;;;;;;;;13.62;76.25;100966.56;5054160;28;19928;-55
2022/10/25 01:00:29;;;;;;;;;;;;;;;13.60;76.44;100962.34;5057215;28;19986;-55
2022/10/25 01:02:54;;;;;;;;;;;;;;;13.59;76.45;100960.66;5057530;28;20460;-55
2022/10/25 01:05:21;;;;;;;;;;;;;;;13.57;76.48;100960.72;5056795;28;19924;-58
2022/10/25 01:07:47;;;;;;;;;;;;;;;13.54;76.43;100958.28;5057809;28;19917;-55
2022/10/25 01:10:12;;;;;;;;;;;;;;;13.53;76.56;100961.91;5055290;28;19987;-59
2022/10/25 01:12:37;;;;;;;;;;;;;;;13.53;76.52;100967.19;5059166;28;19927;-55
2022/10/25 01:15:03;;;;;;;;;;;;;;;13.51;76.53;100963.81;5055334;28;20037;-61
2022/10/25 01:17:31;;;;;;;;;;;;;;;13.50;76.45;100962.13;5058340;28;20637;-58
2022/10/25 01:20:02;;;;;;;;;;;;;;;13.49;76.46;100965.69;5056567;28;21110;-55
2022/10/25 01:22:31;;;;;;;;;;;;;;;13.48;76.54;100961.38;5058334;28;19927;-55
2022/10/25 01:25:15;;;;;;;;;;;;;;;13.47;76.37;100957.03;5055576;28;20073;-61
2022/10/25 01:27:40;;;;;;;;;;;;;;;13.45;76.52;100958.91;5057052;28;20065;-57
2022/10/25 01:30:44;;;;;;;;;;;;;;;13.41;76.37;100959.13;5056365;28;20393;-55
2022/10/25 01:33:19;;;;;;;;;;;;;;;13.37;76.49;100952.31;4975259;28;20338;-58
2022/10/25 01:35:52;;;;;;;;;;;;;;;13.34;76.47;100957.81;4978401;28;19961;-55
2022/10/25 01:38:36;;;;;;;;;;;;;;;13.33;76.38;100960.53;5023004;28;19950;-57
2022/10/25 01:41:17;;;;;;;;;;;;;;;13.29;76.40;100959.91;5056572;28;19931;-55
2022/10/25 01:43:45;;;;;;;;;;;;;;;13.27;76.37;100956.50;5056322;28;19916;-54
2022/10/25 01:46:18;;;;;;;;;;;;;;;13.24;76.47;100961.97;5051556;28;19921;-62
2022/10/25 01:48:49;;;;;;;;;;;;;;;13.23;76.56;100957.69;5050382;28;19920;-62
2022/10/25 01:51:16;;;;;;;;;;;;;;;13.23;76.38;100957.69;5056349;28;20305;-57
2022/10/25 01:53:49;;;;;;;;;;;;;;;13.24;76.46;100954.91;5055941;28;19924;-57
2022/10/25 01:56:19;;;;;;;;;;;;;;;13.24;76.38;100956.69;5056961;28;19956;-55
2022/10/25 01:58:44;;;;;;;;;;;;;;;13.24;76.32;100956.69;5054228;28;19981;-57
2022/10/25 02:01:16;;;;;;;;;;;;;;;13.25;76.46;100961.03;5052797;28;20262;-59
2022/10/25 02:03:47;;;;;;;;;;;;;;;13.23;76.40;100957.69;5055012;28;20400;-55
2022/10/25 02:06:13;;;;;;;;;;;;;;;13.24;76.54;100962.84;5053886;28;19920;-55
2022/10/25 02:08:45;;;;;;;;;;;;;;;13.26;76.51;100968.03;5057971;28;19912;-55
2022/10/25 02:11:28;;;;;;;;;;;;;;;13.23;76.50;100960.31;5056060;28;19920;-55
2022/10/25 02:14:12;;;;;;;;;;;;;;;13.22;76.62;100964.75;5051521;28;20385;-55
2022/10/25 02:16:43;;;;;;;;;;;;;;;13.22;76.57;100974.47;5055058;28;19916;-55
2022/10/25 02:19:11;;;;;;;;;;;;;;;13.21;76.82;100970.13;5052505;28;19936;-55
2022/10/25 02:21:36;;;;;;;;;;;;;;;13.21;76.47;100972.78;5057364;28;19920;-55
2022/10/25 02:24:05;;;;;;;;;;;;;;;13.22;76.38;100971.84;5056306;28;19947;-55
2022/10/25 02:26:31;;;;;;;;;;;;;;;13.21;76.64;100972.78;5052829;28;19928;-56
2022/10/25 02:28:57;;;;;;;;;;;;;;;13.21;76.65;100962.22;5058079;28;19924;-56
2022/10/25 02:31:23;;;;;;;;;;;;;;;13.22;76.60;100962.09;5054144;28;20082;-54
2022/10/25 02:33:49;;;;;;;;;;;;;;;13.24;76.65;100962.84;5049839;28;19978;-57
2022/10/25 02:36:17;;;;;;;;;;;;;;;13.24;76.90;100972.56;5056513;28;20293;-56
2022/10/25 02:38:42;;;;;;;;;;;;;;;13.26;76.76;100960.09;5059903;28;19917;-55
2022/10/25 02:41:08;;;;;;;;;;;;;;;13.27;76.81;100959.16;5054838;28;19920;-55
2022/10/25 02:43:33;;;;;;;;;;;;;;;13.29;76.79;100965.19;5054152;28;19920;-57
2022/10/25 02:45:59;;;;;;;;;;;;;;;13.30;76.78;100955.47;5055805;28;19931;-56
2022/10/25 02:48:24;;;;;;;;;;;;;;;13.32;76.76;100959.69;5055496;28;19981;-55
2022/10/25 02:50:50;;;;;;;;;;;;;;;13.35;76.77;100961.28;5056914;28;20397;-55
2022/10/25 02:53:15;;;;;;;;;;;;;;;13.37;76.73;100956.75;5054778;28;20389;-56
2022/10/25 02:55:40;;;;;;;;;;;;;;;13.39;76.76;100963.63;5054656;28;19925;-57
2022/10/25 02:58:06;;;;;;;;;;;;;;;13.42;76.60;100965.25;5056917;28;20306;-55
2022/10/25 03:00:31;;;;;;;;;;;;;;;13.45;76.63;100958.91;5056404;28;20289;-55
2022/10/25 03:02:56;;;;;;;;;;;;;;;13.46;76.67;100964.09;5059705;28;20469;-55
2022/10/25 03:05:22;;;;;;;;;;;;;;;13.49;76.56;100971.81;5061111;28;20015;-56
2022/10/25 03:07:47;;;;;;;;;;;;;;;13.50;76.66;100973.53;5060314;28;19932;-56
2022/10/25 03:10:12;;;;;;;;;;;;;;;13.52;76.64;100971.63;5058054;28;19929;-56
2022/10/25 03:12:37;;;;;;;;;;;;;;;13.56;76.55;100980.19;5040859;28;20015;-55
2022/10/25 03:15:03;;;;;;;;;;;;;;;13.59;76.75;100980.00;5061938;28;20052;-57
2022/10/25 03:17:28;;;;;;;;;;;;;;;13.63;76.73;100973.56;5058386;28;19928;-56
2022/10/25 03:19:54;;;;;;;;;;;;;;;13.64;76.63;100974.38;5060809;28;19928;-56
2022/10/25 03:22:19;;;;;;;;;;;;;;;13.65;76.84;100976.94;5058711;28;20373;-56
2022/10/25 03:24:44;;;;;;;;;;;;;;;13.67;76.89;100975.06;5062155;28;19932;-55
2022/10/25 03:27:09;;;;;;;;;;;;;;;13.68;76.92;100976.75;5060988;28;19975;-56
2022/10/25 03:29:35;;;;;;;;;;;;;;;13.69;77.01;100973.13;5058695;28;20397;-56
2022/10/25 03:32:00;;;;;;;;;;;;;;;13.71;76.97;100981.81;5059282;28;19920;-57
2022/10/25 03:34:25;;;;;;;;;;;;;;;13.71;77.10;100973.88;5060597;28;19932;-57
2022/10/25 03:36:51;;;;;;;;;;;;;;;13.72;77.01;100978.22;5061093;28;19935;-54
2022/10/25 03:39:16;;;;;;;;;;;;;;;13.75;77.06;100981.59;5058195;28;19921;-57
2022/10/25 03:41:41;;;;;;;;;;;;;;;13.78;76.93;100986.69;5059439;28;20348;-57
2022/10/25 03:44:07;;;;;;;;;;;;;;;13.77;77.11;100985.84;5060471;28;19932;-57
2022/10/25 03:46:32;;;;;;;;;;;;;;;13.79;77.07;100991.03;5055095;28;19924;-56
2022/10/25 03:48:58;;;;;;;;;;;;;;;13.78;76.97;100986.69;5057558;28;19920;-55
2022/10/25 03:51:23;;;;;;;;;;;;;;;13.78;76.95;100994.63;5057117;28;19952;-57
2022/10/25 03:53:49;;;;;;;;;;;;;;;13.78;76.97;100992.81;5060126;28;20016;-56
2022/10/25 03:56:14;;;;;;;;;;;;;;;13.80;76.94;100990.09;5057665;28;19929;-54
2022/10/25 03:58:40;;;;;;;;;;;;;;;13.81;77.05;100991.78;5057545;28;19925;-55
2022/10/25 04:01:07;;;;;;;;;;;;;;;13.81;77.02;100994.44;5060782;28;20313;-54
2022/10/25 04:03:32;;;;;;;;;;;;;;;13.83;77.06;101001.31;5055490;28;19920;-56
2022/10/25 04:05:57;;;;;;;;;;;;;;;13.84;77.05;100999.53;5058356;28;19991;-55
2022/10/25 04:08:23;;;;;;;;;;;;;;;13.85;77.02;100993.25;5055073;28;19924;-54
2022/10/25 04:10:48;;;;;;;;;;;;;;;13.85;77.17;100998.53;5061770;28;19924;-56
2022/10/25 04:13:13;;;;;;;;;;;;;;;13.85;77.15;100998.53;5055326;28;19974;-54
2022/10/25 04:15:39;;;;;;;;;;;;;;;13.85;77.32;100995.91;5059744;28;19962;-56
2022/10/25 04:18:04;;;;;;;;;;;;;;;13.86;77.06;100998.47;5060292;28;20476;-57
2022/10/25 04:20:30;;;;;;;;;;;;;;;13.85;77.23;100995.91;5059827;28;19924;-54
2022/10/25 04:22:55;;;;;;;;;;;;;;;13.86;77.15;101000.22;5055594;28;20283;-54
2022/10/25 04:25:21;;;;;;;;;;;;;;;13.86;77.27;101000.22;5059957;28;19933;-54
2022/10/25 04:27:46;;;;;;;;;;;;;;;13.87;77.20;100994.88;5059037;28;20382;-57
2022/10/25 04:30:12;;;;;;;;;;;;;;;13.87;77.16;100997.50;5058814;28;19931;-55
2022/10/25 04:32:37;;;;;;;;;;;;;;;13.87;77.10;100991.34;5060363;28;19929;-56
2022/10/25 04:35:02;;;;;;;;;;;;;;;13.89;76.97;101004.50;5055713;28;19925;-55
2022/10/25 04:37:28;;;;;;;;;;;;;;;13.87;77.03;100997.50;5049820;28;19964;-54
2022/10/25 04:39:53;;;;;;;;;;;;;;;13.87;77.15;100994.00;5053881;28;19931;-56
2022/10/25 04:42:18;;;;;;;;;;;;;;;13.86;77.15;100987.88;5054553;28;19931;-55
2022/10/25 04:44:44;;;;;;;;;;;;;;;13.85;77.13;100991.47;5057835;28;20458;-57
2022/10/25 04:47:09;;;;;;;;;;;;;;;13.86;77.10;100997.59;5057710;28;19925;-54
2022/10/25 04:49:34;;;;;;;;;;;;;;;13.87;77.04;100996.66;5057611;28;19925;-56
2022/10/25 04:51:59;;;;;;;;;;;;;;;13.86;76.86;101000.22;5057972;28;19921;-55
2022/10/25 04:54:25;;;;;;;;;;;;;;;13.84;77.01;100996.88;5060455;28;19921;-54
2022/10/25 04:56:50;;;;;;;;;;;;;;;13.84;77.05;101005.63;5059434;28;19956;-56
2022/10/25 04:59:15;;;;;;;;;;;;;;;13.83;77.11;101006.59;5057733;28;20410;-54
2022/10/25 05:01:41;;;;;;;;;;;;;;;13.84;77.06;101010.09;5057191;28;19920;-55
2022/10/25 05:04:06;;;;;;;;;;;;;;;13.85;76.94;101009.13;5059459;28;19931;-54
2022/10/25 05:06:31;;;;;;;;;;;;;;;13.86;76.92;101002.88;5059197;28;19929;-56
2022/10/25 05:08:56;;;;;;;;;;;;;;;13.86;76.92;101005.53;5063668;28;19917;-54
2022/10/25 05:11:23;;;;;;;;;;;;;;;13.87;77.03;101008.09;5058382;28;20045;-56
2022/10/25 05:13:49;;;;;;;;;;;;;;;13.88;77.21;101008.91;5058671;28;20399;-55
2022/10/25 05:16:22;;;;;;;;;;;;;;;13.91;77.19;101005.25;5060622;28;19978;-55
2022/10/25 05:18:48;;;;;;;;;;;;;;;13.92;77.14;101007.78;5058956;28;20937;-55
2022/10/25 05:21:14;;;;;;;;;;;;;;;13.92;77.14;101007.78;5059166;28;19976;-55
2022/10/25 05:23:40;;;;;;;;;;;;;;;13.93;76.93;101017.41;5052903;28;19955;-57
2022/10/25 05:26:07;;;;;;;;;;;;;;;13.95;76.98;101015.50;5056299;28;19920;-55
2022/10/25 05:28:33;;;;;;;;;;;;;;;13.94;77.01;101013.81;5059950;28;20006;-55
2022/10/25 05:31:02;;;;;;;;;;;;;;;13.93;77.14;101017.41;5052177;28;19924;-56
2022/10/25 05:33:28;;;;;;;;;;;;;;;13.95;77.05;101019.94;5061350;28;19924;-55
2022/10/25 05:35:53;;;;;;;;;;;;;;;13.95;76.97;101025.22;5058109;28;19924;-55
2022/10/25 05:38:18;;;;;;;;;;;;;;;13.95;77.14;101030.50;5055814;28;19984;-57
2022/10/25 05:40:50;;;;;;;;;;;;;;;13.96;77.15;101026.91;5050792;28;20023;-57
2022/10/25 05:43:16;;;;;;;;;;;;;;;13.97;77.19;101028.63;5047047;28;21704;-63
2022/10/25 05:45:41;;;;;;;;;;;;;;;13.97;77.13;101026.84;5048160;28;19934;-60
2022/10/25 05:48:06;;;;;;;;;;;;;;;13.98;77.04;101036.47;5055416;28;20275;-62
2022/10/25 05:50:33;;;;;;;;;;;;;;;13.97;77.10;101036.56;5053360;28;20579;-55
2022/10/25 05:52:59;;;;;;;;;;;;;;;13.97;77.11;101032.13;5051088;28;19929;-57
2022/10/25 05:55:24;;;;;;;;;;;;;;;13.98;77.01;101036.47;5055092;28;20035;-55
2022/10/25 05:57:50;;;;;;;;;;;;;;;13.98;77.23;101041.75;5058844;28;19943;-55
2022/10/25 06:00:16;;;;;;;;;;;;;;;13.96;77.29;101038.38;5051747;28;19952;-55
2022/10/25 06:02:41;;;;;;;;;;;;;;;13.98;77.20;101052.34;5055812;28;19942;-55
2022/10/25 06:05:07;;;;;;;;;;;;;;;13.99;77.46;101046.06;5054164;28;20397;-55
2022/10/25 06:07:32;;;;;;;;;;;;;;;14.00;77.47;101045.13;5054138;28;19920;-55
2022/10/25 06:09:57;;;;;;;;;;;;;;;14.02;77.31;101043.22;5035219;28;20396;-55
2022/10/25 06:12:23;;;;;;;;;;;;;;;14.03;77.54;101055.50;5055928;28;19963;-55
2022/10/25 06:14:48;;;;;;;;;;;;;;;14.06;77.27;101053.59;5051225;28;19932;-54
2022/10/25 06:17:13;;;;;;;;;;;;;;;14.08;77.36;101059.66;5053656;28;19927;-57
2022/10/25 06:19:38;;;;;;;;;;;;;;;14.10;77.46;101065.69;5053815;28;20018;-58
2022/10/25 06:22:04;;;;;;;;;;;;;;;14.11;77.57;101068.22;5052949;28;20051;-55
2022/10/25 06:24:29;;;;;;;;;;;;;;;14.12;77.63;101067.28;5053591;28;19966;-53
2022/10/25 06:26:54;;;;;;;;;;;;;;;14.13;77.69;101071.63;5057054;28;19928;-56
2022/10/25 06:29:20;;;;;;;;;;;;;;;14.15;77.56;101071.50;5049808;28;19924;-56
2022/10/25 06:31:45;;;;;;;;;;;;;;;14.18;77.57;101071.28;5051147;28;20011;-55
2022/10/25 06:34:10;;;;;;;;;;;;;;;14.19;77.58;101080.94;5051110;28;19928;-56
2022/10/25 06:36:36;;;;;;;;;;;;;;;14.22;77.56;101080.72;5060372;28;19929;-56
2022/10/25 06:39:01;;;;;;;;;;;;;;;14.25;77.56;101075.22;5055388;28;19936;-57
2022/10/25 06:41:27;;;;;;;;;;;;;;;14.26;77.60;101074.28;5061945;28;21145;-55
2022/10/25 06:43:53;;;;;;;;;;;;;;;14.28;77.57;101088.28;5058048;28;20015;-55
2022/10/25 06:46:20;;;;;;;;;;;;;;;14.31;77.52;101089.84;5061156;28;19928;-55
2022/10/25 06:48:45;;;;;;;;;;;;;;;14.35;77.52;101090.47;5058719;28;19960;-55
2022/10/25 06:51:11;;;;;;;;;;;;;;;14.36;77.34;101095.69;5061956;28;19963;-55
2022/10/25 06:53:37;;;;;;;;;;;;;;;14.36;77.37;101100.97;5059910;28;20023;-55
2022/10/25 06:56:03;;;;;;;;;;;;;;;14.38;77.58;101100.88;5061022;28;20518;-58
2022/10/25 06:58:29;;;;;;;;;;;;;;;14.39;77.40;101103.41;5047278;28;19924;-55
2022/10/25 07:00:54;;;;;;;;;;;;;;;14.40;77.36;101098.97;5061980;28;19920;-54
2022/10/25 07:03:21;;;;;;;;;;;;;;;14.42;77.24;101107.66;5055807;28;20035;-59
2022/10/25 07:05:46;;;;;;;;;;;;;;;14.40;77.23;101105.09;5055829;28;19929;-57
2022/10/25 07:08:12;;;;;;;;;;;;;;;14.40;77.09;101112.19;5058200;28;19925;-55
2022/10/25 07:10:38;;;;;;;;;;;;;;;14.39;77.05;101107.84;5061500;28;20282;-56
2022/10/25 07:13:04;;;;;;;;;;;;;;;14.39;77.00;101113.16;5062886;28;19943;-55
2022/10/25 07:15:29;;;;;;;;;;;;;;;14.38;76.96;101107.00;5062645;28;20305;-59
2022/10/25 07:17:54;;;;;;;;;;;;;;;14.41;77.02;101109.44;5044848;28;19928;-62
2022/10/25 07:20:20;;;;;;;;;;;;;;;14.41;76.86;101111.25;5059263;28;19928;-58
2022/10/25 07:22:46;;;;;;;;;;;;;;;14.42;76.96;101112.94;5056791;28;20394;-56
2022/10/25 07:25:12;;;;;;;;;;;;;;;14.45;76.95;101107.41;5070605;28;19920;-55
2022/10/25 07:27:37;;;;;;;;;;;;;;;14.49;76.88;101108.91;5066816;28;19966;-55
2022/10/25 07:30:03;;;;;;;;;;;;;;;14.57;76.73;101116.31;5062678;28;19970;-58
2022/10/25 07:32:28;;;;;;;;;;;;;;;14.62;76.47;101114.22;5068951;28;19948;-58
2022/10/25 07:34:53;;;;;;;;;;;;;;;14.63;76.19;101113.28;5063898;28;19928;-55
2022/10/25 07:37:18;;;;;;;;;;;;;;;14.65;76.13;101119.31;5070422;28;19920;-55
2022/10/25 07:39:44;;;;;;;;;;;;;;;14.65;76.15;101114.00;5060843;28;19928;-58
2022/10/25 07:42:09;;;;;;;;;;;;;;;14.64;76.18;101121.09;5062498;28;19948;-59
2022/10/25 07:44:34;;;;;;;;;;;;;;;14.64;76.05;101125.56;5057837;28;19933;-56
2022/10/25 07:47:00;;;;;;;;;;;;;;;14.62;75.85;101125.66;5059311;28;19975;-57
2022/10/25 07:49:25;;;;;;;;;;;;;;;14.66;75.96;101131.59;5059716;28;19932;-55
2022/10/25 07:51:50;;;;;;;;;;;;;;;14.70;76.03;101127.81;5060912;28;20012;-57
2022/10/25 07:54:16;;;;;;;;;;;;;;;14.73;75.82;101129.41;5057122;28;19983;-56
2022/10/25 07:56:41;;;;;;;;;;;;;;;14.77;75.61;101139.69;5062849;28;19936;-55
2022/10/25 07:59:06;;;;;;;;;;;;;;;14.77;75.58;101138.81;5060679;28;19924;-59
2022/10/25 08:01:31;;;;;;;;;;;;;;;14.84;75.39;101139.25;5059785;28;20360;-55
2022/10/25 08:03:57;;;;;;;;;;;;;;;14.88;75.09;101141.59;5060254;28;19924;-56
2022/10/25 08:06:23;;;;;;;;;;;;;;;14.89;74.87;101145.94;5060665;28;19932;-55
2022/10/25 08:08:48;;;;;;;;;;;;;;;14.94;74.83;101150.91;5059380;28;19928;-55
2022/10/25 08:11:13;;;;;;;;;;;;;;;14.87;74.49;101145.19;5058795;28;19929;-55
2022/10/25 08:13:39;;;;;;;;;;;;;;;14.86;74.45;101146.16;5060312;28;19935;-58
2022/10/25 08:16:04;;;;;;;;;;;;;;;14.92;74.19;101151.00;5060326;28;19920;-56
2022/10/25 08:18:30;;;;;;;;;;;;;;;14.98;74.03;101148.88;5060202;28;19917;-55
2022/10/25 08:20:55;;;;;;;;;;;;;;;15.05;74.04;101148.34;5058397;28;19924;-57
2022/10/25 08:23:20;;;;;;;;;;;;;;;15.11;73.98;101148.88;5058549;28;19936;-58
2022/10/25 08:25:46;;;;;;;;;;;;;;;15.13;73.80;101150.47;5058257;28;20017;-54
2022/10/25 08:28:11;;;;;;;;;;;;;;;15.19;73.63;101146.53;5058085;28;19925;-58
2022/10/25 08:30:36;;;;;;;;;;;;;;;15.22;73.79;101149.78;5056593;28;19921;-55
2022/10/25 08:33:02;;;;;;;;;;;;;;;15.28;73.60;101143.22;5057090;28;20357;-55
2022/10/25 08:35:27;;;;;;;;;;;;;;;15.34;73.51;101147.25;5059029;28;19919;-59
2022/10/25 08:37:52;;;;;;;;;;;;;;;15.38;73.36;101148.69;5059721;28;20015;-55
2022/10/25 08:40:19;;;;;;;;;;;;;;;15.38;73.20;101146.03;5057657;28;19924;-57
2022/10/25 08:42:58;;;;;;;;;;;;;;;15.39;73.35;101151.25;5058725;28;19924;-55
2022/10/25 08:45:32;;;;;;;;;;;;;;;15.41;72.89;101153.78;5055318;28;20038;-55
2022/10/25 08:47:58;;;;;;;;;;;;;;;15.38;72.86;101154.00;5056349;28;20377;-55
2022/10/25 08:50:37;;;;;;;;;;;;;;;15.40;73.06;101168.00;5050860;28;19924;-58
2022/10/25 08:53:05;;;;;;;;;;;;;;;15.42;72.71;101166.09;5056111;28;19923;-60
2022/10/25 08:55:30;;;;;;;;;;;;;;;15.44;72.50;101161.53;5058266;28;19936;-59
2022/10/25 08:57:55;;;;;;;;;;;;;;;15.46;72.29;101159.63;5059629;28;19920;-56
2022/10/25 09:00:22;;;;;;;;;;;;;;;15.46;72.33;101167.56;5057000;28;20392;-61
2022/10/25 09:02:51;;;;;;;;;;;;;;;15.48;72.31;101165.66;5049890;28;19925;-59
2022/10/25 09:05:35;;;;;;;;;;;;;;;15.49;72.18;101156.75;5053355;28;19987;-56
2022/10/25 09:08:19;;;;;;;;;;;;;;;15.55;71.72;101164.25;5055710;28;22161;-55
2022/10/25 09:10:55;;;;;;;;;;;;;;;15.62;71.66;101166.47;5059129;28;20005;-55
2022/10/25 09:13:25;;;;;;;;;;;;;;;15.68;71.43;101168.66;5057538;28;19917;-57
2022/10/25 09:16:06;;;;;;;;;;;;;;;15.74;71.33;101168.22;5054671;28;19931;-55
2022/10/25 09:18:50;;;;;;;;;;;;;;;15.70;71.03;101170.25;5068422;28;19957;-56
2022/10/25 09:21:18;;;;;;;;;;;;;;;15.77;71.03;101167.16;5064991;28;19970;-55
2022/10/25 09:23:51;;;;;;;;;;;;;;;15.74;71.27;101170.88;5064320;28;19944;-57
2022/10/25 09:26:25;;;;;;;;;;;;;;;15.74;71.09;101178.84;5066664;28;19921;-55
2022/10/25 09:29:01;;;;;;;;;;;;;;;15.69;71.23;101184.47;5065196;28;19916;-55
2022/10/25 09:31:28;;;;;;;;;;;;;;;15.78;71.15;101177.66;5065805;28;20070;-55
2022/10/25 09:33:59;;;;;;;;;;;;;;;15.89;71.17;101184.84;5064740;28;19982;-55
2022/10/25 09:36:27;;;;;;;;;;;;;;;15.94;70.66;101192.50;5062286;28;19917;-55
2022/10/25 09:38:56;;;;;;;;;;;;;;;15.97;70.59;101197.56;5067558;28;19920;-55
2022/10/25 09:41:24;;;;;;;;;;;;;;;16.02;70.09;101198.06;5063567;28;19920;-56
2022/10/25 09:43:55;;;;;;;;;;;;;;;16.06;69.96;101202.19;5064660;28;19925;-54
2022/10/25 09:46:29;;;;;;;;;;;;;;;16.01;69.94;101196.38;5065768;28;19925;-54
2022/10/25 09:48:58;;;;;;;;;;;;;;;16.07;69.54;101200.38;5066879;28;19942;-55
2022/10/25 09:51:30;;;;;;;;;;;;;;;16.09;69.55;101201.13;5063156;28;19921;-55
2022/10/25 09:53:56;;;;;;;;;;;;;;;16.18;69.64;101202.25;5060398;28;19960;-54
2022/10/25 09:56:21;;;;;;;;;;;;;;;16.14;68.87;101204.28;5063959;28;19963;-54
2022/10/25 09:58:46;;;;;;;;;;;;;;;16.15;69.33;101212.13;5068097;28;19959;-56
2022/10/25 10:01:16;;;;;;;;;;;;;;;16.22;69.50;101211.69;5062275;28;19927;-54
2022/10/25 10:03:42;;;;;;;;;;;;;;;16.20;68.43;101205.63;5059288;28;20352;-56
2022/10/25 10:06:18;;;;;;;;;;;;;;;16.20;68.36;101210.94;5042243;28;20523;-55
2022/10/25 10:08:48;;;;;;;;;;;;;;;16.22;68.27;101209.88;5065569;28;19916;-56
2022/10/25 10:11:16;;;;;;;;;;;;;;;16.23;68.41;101208.06;5065756;28;20314;-56
2022/10/25 10:14:04;;;;;;;;;;;;;;;16.27;68.59;101209.50;5055981;28;19916;-55
2022/10/25 10:16:40;;;;;;;;;;;;;;;16.32;68.49;101207.38;5054085;28;19925;-57
2022/10/25 10:19:11;;;;;;;;;;;;;;;16.32;68.06;101223.31;5063288;28;19917;-55
2022/10/25 10:21:41;;;;;;;;;;;;;;;16.31;68.08;101213.66;5059628;28;19924;-55
2022/10/25 10:24:14;;;;;;;;;;;;;;;16.32;67.79;101219.81;5061063;28;19925;-57
2022/10/25 10:26:50;;;;;;;;;;;;;;;16.29;67.75;101218.22;5064163;28;20358;-54
2022/10/25 10:29:19;;;;;;;;;;;;;;;16.28;67.84;101211.22;5061426;28;19917;-54
2022/10/25 10:31:49;;;;;;;;;;;;;;;16.34;68.18;101209.91;5062157;28;19931;-56
2022/10/25 10:34:21;;;;;;;;;;;;;;;16.31;67.57;101211.00;5064078;28;19947;-57
2022/10/25 10:36:48;;;;;;;;;;;;;;;16.29;67.79;101211.13;5066012;28;20457;-57
2022/10/25 10:39:21;;;;;;;;;;;;;;;16.30;67.86;101222.56;5065423;28;20287;-57
2022/10/25 10:42:03;;;;;;;;;;;;;;;16.29;67.67;101221.75;5062918;28;19931;-55
2022/10/25 10:44:33;;;;;;;;;;;;;;;16.25;67.84;101211.47;5066760;28;19921;-55
2022/10/25 10:46:58;;;;;;;;;;;;;;;16.25;67.92;101228.22;5064364;28;20314;-54
2022/10/25 10:49:31;;;;;;;;;;;;;;;16.27;68.18;101222.78;5064689;28;20638;-55
2022/10/25 10:51:56;;;;;;;;;;;;;;;16.30;68.26;101223.44;5059586;28;19916;-54
2022/10/25 10:54:22;;;;;;;;;;;;;;;16.32;68.11;101223.31;5058132;28;20292;-54
2022/10/25 10:56:58;;;;;;;;;;;;;;;16.23;67.90;101224.84;5066443;28;19912;-55
2022/10/25 10:59:25;;;;;;;;;;;;;;;16.26;68.08;101221.13;5061104;28;19909;-57
2022/10/25 11:01:51;;;;;;;;;;;;;;;16.35;68.21;101222.22;5062900;28;20332;-57
2022/10/25 11:04:16;;;;;;;;;;;;;;;16.45;68.09;101226.75;5064611;28;19916;-56
2022/10/25 11:06:41;;;;;;;;;;;;;;;16.57;68.00;101230.28;5062799;28;19928;-55
2022/10/25 11:09:06;;;;;;;;;;;;;;;16.68;67.75;101225.97;5056084;28;19924;-55
2022/10/25 11:11:32;;;;;;;;;;;;;;;16.75;67.40;101228.03;5067038;28;19991;-57
2022/10/25 11:13:59;;;;;;;;;;;;;;;16.80;66.87;101222.34;5059014;28;19920;-54
2022/10/25 11:16:43;;;;;;;;;;;;;;;16.88;67.03;101222.63;5064700;28;20052;-54
2022/10/25 11:19:18;;;;;;;;;;;;;;;16.98;66.71;101225.47;5057533;28;19923;-55
2022/10/25 11:21:49;;;;;;;;;;;;;;;17.05;66.31;101225.84;5063205;28;19917;-56
2022/10/25 11:24:21;;;;;;;;;;;;;;;17.11;66.28;101224.50;5064054;28;19970;-54
2022/10/25 11:27:01;;;;;;;;;;;;;;;17.16;66.22;101227.66;5056708;28;20385;-55
2022/10/25 11:29:42;;;;;;;;;;;;;;;17.16;66.08;101238.31;5067452;28;19963;-54
2022/10/25 11:32:13;;;;;;;;;;;;;;;17.18;66.12;101239.00;5062356;28;19916;-55
2022/10/25 11:34:38;;;;;;;;;;;;;;;17.19;66.50;101248.69;5060202;28;19920;-55
2022/10/25 11:37:21;;;;;;;;;;;;;;;17.21;66.33;101246.75;5068376;28;19917;-54
2022/10/25 11:39:46;;;;;;;;;;;;;;;17.15;66.23;101253.38;5060651;28;19913;-57
2022/10/25 11:42:14;;;;;;;;;;;;;;;17.20;66.56;101245.06;5068773;28;19919;-54
2022/10/25 11:45:04;;;;;;;;;;;;;;;17.23;65.92;101246.66;5063285;28;19970;-55
2022/10/25 11:47:29;;;;;;;;;;;;;;;17.18;66.44;101249.63;5065055;28;19924;-57
2022/10/25 11:50:07;;;;;;;;;;;;;;;17.20;66.32;101245.06;5068354;28;20015;-57
2022/10/25 11:52:51;;;;;;;;;;;;;;;17.28;66.40;101253.28;5065196;28;19974;-55
2022/10/25 11:55:20;;;;;;;;;;;;;;;17.28;66.15;101253.28;5064227;28;19917;-59
2022/10/25 11:57:57;;;;;;;;;;;;;;;17.27;66.14;101256.91;5069315;28;19948;-55
2022/10/25 12:00:30;;;;;;;;;;;;;;;17.19;65.70;101264.63;5069145;28;19932;-55
2022/10/25 12:03:14;;;;;;;;;;;;;;;17.16;65.88;101263.06;5069116;28;20009;-55
2022/10/25 12:05:51;;;;;;;;;;;;;;;17.11;65.49;101267.06;5067962;28;19935;-55
2022/10/25 12:08:22;;;;;;;;;;;;;;;17.11;65.48;101277.69;5064703;28;19965;-56
2022/10/25 12:10:56;;;;;;;;;;;;;;;17.11;65.72;101270.53;5069519;28;19916;-56
2022/10/25 12:13:25;;;;;;;;;;;;;;;17.11;65.81;101267.88;5066669;28;20015;-55
2022/10/25 12:15:52;;;;;;;;;;;;;;;17.10;66.16;101270.66;5066229;28;19945;-56
2022/10/25 12:18:23;;;;;;;;;;;;;;;17.05;66.42;101266.53;5063545;28;19920;-55
2022/10/25 12:20:49;;;;;;;;;;;;;;;17.01;66.31;101264.25;5064825;28;19924;-58
2022/10/25 12:23:19;;;;;;;;;;;;;;;16.97;66.59;101271.63;5063856;28;20488;-58
2022/10/25 12:25:57;;;;;;;;;;;;;;;16.96;66.54;101264.59;5067285;28;19932;-58
2022/10/25 12:28:22;;;;;;;;;;;;;;;16.91;66.89;101270.25;5071245;28;19917;-55
2022/10/25 12:30:49;;;;;;;;;;;;;;;16.89;66.86;101266.00;5064724;28;20305;-55
2022/10/25 12:33:23;;;;;;;;;;;;;;;16.88;66.94;101269.63;5060739;28;20324;-59
2022/10/25 12:35:51;;;;;;;;;;;;;;;16.87;67.19;101271.44;5068305;28;19966;-56
2022/10/25 12:38:26;;;;;;;;;;;;;;;16.84;67.16;101269.00;5065608;28;20020;-55
2022/10/25 12:40:56;;;;;;;;;;;;;;;16.82;67.29;101275.41;5066726;28;19913;-55